createdAt,value
2023-02-03T00:01:42.265Z,97302.75
2023-02-03T00:04:12.381Z,97306.73
2023-02-03T00:06:42.048Z,97312.39
2023-02-03T00:09:11.369Z,97316.31
2023-02-03T00:11:40.971Z,97320.40
2023-02-03T00:14:10.741Z,97322.17
2023-02-03T00:16:40.613Z,97323.88
2023-02-03T00:19:09.623Z,97330.36
2023-02-03T00:21:39.212Z,97332.67
2023-02-03T00:24:09.101Z,97340.16
2023-02-03T00:26:41.904Z,97342.17
2023-02-03T00:29:11.107Z,97344.44
2023-02-03T00:31:40.793Z,97344.91
2023-02-03T00:34:09.789Z,97347.86
2023-02-03T00:36:38.819Z,97345.58
2023-02-03T00:39:07.880Z,97344.05
2023-02-03T00:41:37.826Z,97342.13
2023-02-03T00:44:07.418Z,97346.63
2023-02-03T00:46:37.113Z,97348.52
2023-02-03T00:49:07.692Z,97355.48
2023-02-03T00:51:37.032Z,97351.79
2023-02-03T00:54:06.246Z,97355.14
2023-02-03T00:56:35.039Z,97354.30
2023-02-03T00:59:04.040Z,97353.62
2023-02-03T01:01:37.721Z,97364.91
2023-02-03T01:04:08.041Z,97366.61
2023-02-03T01:06:38.114Z,97366.05
2023-02-03T01:09:08.437Z,97365.97
2023-02-03T01:11:38.221Z,97363.53
2023-02-03T01:14:07.508Z,97356.85
2023-02-03T01:16:39.771Z,97358.02
2023-02-03T01:19:09.967Z,97362.90
2023-02-03T01:21:39.278Z,97367.27
2023-02-03T01:24:10.434Z,97369.35
2023-02-03T01:26:42.103Z,97373.85
2023-02-03T01:29:12.431Z,97375.26
2023-02-03T01:31:42.809Z,97374.75
2023-02-03T01:34:13.521Z,97367.73
2023-02-03T01:36:43.739Z,97366.24
2023-02-03T01:39:13.540Z,97372.17
2023-02-03T01:41:43.997Z,97378.23
2023-02-03T01:44:34.974Z,97384.23
2023-02-03T01:47:05.281Z,97383.80
2023-02-03T01:49:37.619Z,97383.45
2023-02-03T01:52:08.628Z,97385.59
2023-02-03T01:54:41.279Z,97391.08
2023-02-03T01:57:20.831Z,97394.06
2023-02-03T01:59:50.817Z,97393.73
2023-02-03T02:02:21.757Z,97396.16
2023-02-03T02:04:53.836Z,97399.77
2023-02-03T02:07:24.585Z,97405.30
2023-02-03T02:09:55.555Z,97405.88
2023-02-03T02:12:24.801Z,97407.02
2023-02-03T02:14:56.031Z,97405.27
2023-02-03T02:17:44.987Z,97411.27
2023-02-03T02:20:21.802Z,97411.55
2023-02-03T02:23:09.918Z,97408.27
2023-02-03T02:25:58.367Z,97416.64
2023-02-03T02:28:49.078Z,97418.52
2023-02-03T02:31:48.269Z,97421.55
2023-02-03T02:34:24.337Z,97428.02
2023-02-03T02:37:14.797Z,97429.11
2023-02-03T02:39:53.849Z,97437.55
2023-02-03T02:42:37.199Z,97440.14
2023-02-03T02:45:11.844Z,97441.54
2023-02-03T02:47:42.022Z,97445.51
2023-02-03T02:50:16.809Z,97450.63
2023-02-03T02:52:48.096Z,97453.85
2023-02-03T02:55:25.149Z,97459.82
2023-02-03T02:57:56.459Z,97462.31
2023-02-03T03:00:27.176Z,97468.38
2023-02-03T03:02:58.394Z,97474.76
2023-02-03T03:05:28.985Z,97475.52
2023-02-03T03:08:04.991Z,97477.65
2023-02-03T03:10:36.755Z,97479.98
2023-02-03T03:13:08.572Z,97484.56
2023-02-03T03:15:40.614Z,97488.39
2023-02-03T03:18:14.164Z,97493.44
2023-02-03T03:20:45.166Z,97499.85
2023-02-03T03:23:21.529Z,97502.66
2023-02-03T03:25:55.507Z,97502.13
2023-02-03T03:28:32.275Z,97505.14
2023-02-03T03:31:03.474Z,97510.75
2023-02-03T03:33:33.616Z,97507.08
2023-02-03T03:36:06.626Z,97506.21
2023-02-03T03:38:44.927Z,97505.70
2023-02-03T03:41:19.770Z,97507.29
2023-02-03T03:43:50.612Z,97512.80
2023-02-03T03:46:28.683Z,97513.27
2023-02-03T03:49:05.066Z,97512.81
2023-02-03T03:52:04.354Z,97516.28
2023-02-03T03:54:35.517Z,97519.19
2023-02-03T03:57:16.354Z,97519.53
2023-02-03T03:59:48.818Z,97524.39
2023-02-03T04:02:19.535Z,97526.05
2023-02-03T04:04:49.407Z,97530.06
2023-02-03T04:07:20.516Z,97538.48
2023-02-03T04:09:49.421Z,97537.13
2023-02-03T04:12:25.809Z,97537.27
2023-02-03T04:14:55.459Z,97537.35
2023-02-03T04:17:24.897Z,97541.04
2023-02-03T04:19:54.467Z,97542.23
2023-02-03T04:22:23.915Z,97549.86
2023-02-03T04:24:52.950Z,97556.56
2023-02-03T04:27:23.127Z,97556.33
2023-02-03T04:29:53.848Z,97558.23
2023-02-03T04:32:23.482Z,97558.39
2023-02-03T04:34:53.184Z,97558.42
2023-02-03T04:37:23.651Z,97559.36
2023-02-03T04:39:52.560Z,97562.61
2023-02-03T04:42:22.790Z,97571.31
2023-02-03T04:44:52.303Z,97575.56
2023-02-03T04:47:21.600Z,97573.36
2023-02-03T04:49:50.911Z,97569.95
2023-02-03T04:52:19.812Z,97572.85
2023-02-03T04:54:48.803Z,97574.41
2023-02-03T04:57:17.804Z,97574.95
2023-02-03T04:59:47.521Z,97577.84
2023-02-03T05:02:17.013Z,97584.67
2023-02-03T05:04:46.723Z,97580.38
2023-02-03T05:07:16.064Z,97591.02
2023-02-03T05:09:44.903Z,97595.14
2023-02-03T05:12:13.898Z,97594.45
2023-02-03T05:14:42.423Z,97598.90
2023-02-03T05:17:10.864Z,97604.23
2023-02-03T05:19:40.396Z,97601.89
2023-02-03T05:22:09.260Z,97597.20
2023-02-03T05:24:38.673Z,97597.79
2023-02-03T05:27:08.172Z,97599.83
2023-02-03T05:29:37.166Z,97592.66
2023-02-03T05:32:06.326Z,97597.06
2023-02-03T05:34:35.447Z,97602.13
2023-02-03T05:37:04.477Z,97606.36
2023-02-03T05:39:33.531Z,97606.98
2023-02-03T05:42:03.659Z,97607.47
2023-02-03T05:44:32.867Z,97609.57
2023-02-03T05:47:01.574Z,97614.05
2023-02-03T05:49:30.629Z,97620.23
2023-02-03T05:51:59.205Z,97620.97
2023-02-03T05:54:27.693Z,97626.10
2023-02-03T05:56:56.792Z,97629.14
2023-02-03T05:59:25.575Z,97627.64
2023-02-03T06:01:53.942Z,97627.85
2023-02-03T06:04:22.482Z,97625.45
2023-02-03T06:06:51.557Z,97627.38
2023-02-03T06:09:20.209Z,97627.74
2023-02-03T06:11:49.616Z,97633.24
2023-02-03T06:14:18.530Z,97644.73
2023-02-03T06:16:47.884Z,97646.61
2023-02-03T06:19:16.896Z,97648.17
2023-02-03T06:21:45.921Z,97651.98
2023-02-03T06:24:14.550Z,97650.40
2023-02-03T06:26:43.160Z,97650.36
2023-02-03T06:29:11.856Z,97654.91
2023-02-03T06:31:40.719Z,97655.36
2023-02-03T06:34:09.732Z,97655.10
2023-02-03T06:36:38.587Z,97654.73
2023-02-03T06:39:07.109Z,97656.36
2023-02-03T06:41:36.805Z,97653.55
2023-02-03T06:44:05.599Z,97657.73
2023-02-03T06:46:34.381Z,97654.27
2023-02-03T06:49:03.389Z,97651.09
2023-02-03T06:51:32.635Z,97652.77
2023-02-03T06:54:01.155Z,97654.73
2023-02-03T06:56:30.253Z,97663.54
2023-02-03T06:58:59.452Z,97664.63
2023-02-03T07:01:30.106Z,97666.91
2023-02-03T07:03:59.268Z,97666.42
2023-02-03T07:06:31.245Z,97671.27
2023-02-03T07:09:01.818Z,97680.63
2023-02-03T07:11:31.283Z,97679.88
2023-02-03T07:14:00.267Z,97683.91
2023-02-03T07:16:29.162Z,97687.51
2023-02-03T07:18:58.062Z,97692.60
2023-02-03T07:21:26.837Z,97694.59
2023-02-03T07:23:55.322Z,97693.90
2023-02-03T07:26:25.408Z,97691.09
2023-02-03T07:28:54.950Z,97691.08
2023-02-03T07:31:23.597Z,97692.56
2023-02-03T07:33:52.250Z,97682.98
2023-02-03T07:36:20.709Z,97685.02
2023-02-03T07:38:49.176Z,97682.62
2023-02-03T07:41:18.319Z,97681.52
2023-02-03T07:43:47.189Z,97684.11
2023-02-03T07:46:16.102Z,97691.65
2023-02-03T07:48:45.222Z,97694.71
2023-02-03T07:51:13.725Z,97696.41
2023-02-03T07:53:42.308Z,97695.80
2023-02-03T07:56:12.325Z,97695.81
2023-02-03T07:58:41.026Z,97698.48
2023-02-03T08:01:13.804Z,97702.27
2023-02-03T08:03:42.890Z,97701.04
2023-02-03T08:06:11.676Z,97698.36
2023-02-03T08:08:41.484Z,97704.29
2023-02-03T08:11:10.274Z,97701.86
2023-02-03T08:13:38.748Z,97704.80
2023-02-03T08:16:07.899Z,97704.27
2023-02-03T08:18:36.950Z,97707.13
2023-02-03T08:21:05.836Z,97708.31
2023-02-03T08:23:34.426Z,97710.09
2023-02-03T08:26:02.794Z,97706.83
2023-02-03T08:28:31.692Z,97713.89
2023-02-03T08:31:00.553Z,97709.48
2023-02-03T08:33:29.465Z,97708.23
2023-02-03T08:35:59.280Z,97705.67
2023-02-03T08:38:27.760Z,97706.13
2023-02-03T08:40:56.257Z,97709.19
2023-02-03T08:43:24.724Z,97711.44
2023-02-03T08:45:53.249Z,97709.02
2023-02-03T08:48:21.880Z,97706.17
2023-02-03T08:50:53.445Z,97704.56
2023-02-03T08:53:22.022Z,97701.98
2023-02-03T08:55:51.273Z,97700.04
2023-02-03T08:58:19.916Z,97701.88
2023-02-03T09:00:50.285Z,97697.02
2023-02-03T09:03:18.920Z,97694.83
2023-02-03T09:05:47.698Z,97689.61
2023-02-03T09:08:16.493Z,97692.21
2023-02-03T09:10:45.276Z,97688.91
2023-02-03T09:13:14.503Z,97694.63
2023-02-03T09:15:43.060Z,97694.30
2023-02-03T09:18:11.541Z,97695.59
2023-02-03T09:20:40.662Z,97696.80
2023-02-03T09:23:09.628Z,97699.44
2023-02-03T09:25:38.312Z,97701.38
2023-02-03T09:28:07.292Z,97699.95
2023-02-03T09:30:36.360Z,97701.30
2023-02-03T09:33:05.187Z,97699.86
2023-02-03T09:35:33.883Z,97696.40
2023-02-03T09:38:02.765Z,97697.52
2023-02-03T09:40:34.318Z,97695.30
2023-02-03T09:43:13.041Z,97691.21
2023-02-03T09:45:41.639Z,97685.42
2023-02-03T09:48:16.962Z,97685.20
2023-02-03T09:50:46.783Z,97680.07
2023-02-03T09:53:28.362Z,97677.08
2023-02-03T09:55:58.073Z,97680.04
2023-02-03T09:58:34.470Z,97684.48
2023-02-03T10:01:06.981Z,97681.11
2023-02-03T10:03:38.987Z,97679.66
2023-02-03T10:06:10.418Z,97678.00
2023-02-03T10:08:52.217Z,97680.27
2023-02-03T10:11:30.012Z,97680.94
2023-02-03T10:14:17.339Z,97683.98
2023-02-03T10:16:52.230Z,97680.66
2023-02-03T10:19:23.613Z,97682.41
2023-02-03T10:21:55.693Z,97680.66
2023-02-03T10:24:45.359Z,97678.38
2023-02-03T10:27:17.625Z,97673.40
2023-02-03T10:29:51.544Z,97671.91
2023-02-03T10:32:20.024Z,97670.73
2023-02-03T10:34:49.735Z,97670.35
2023-02-03T10:37:24.865Z,97668.67
2023-02-03T10:39:54.069Z,97667.64
2023-02-03T10:42:22.956Z,97665.77
2023-02-03T10:45:01.069Z,97668.40
2023-02-03T10:47:37.770Z,97667.56
2023-02-03T10:50:08.341Z,97669.71
2023-02-03T10:52:36.941Z,97666.85
2023-02-03T10:55:07.010Z,97671.22
2023-02-03T10:57:36.880Z,97669.29
2023-02-03T11:00:22.448Z,97665.45
2023-02-03T11:03:10.086Z,97662.34
2023-02-03T11:05:38.576Z,97658.09
2023-02-03T11:08:14.931Z,97656.01
2023-02-03T11:10:46.232Z,97654.95
2023-02-03T11:13:17.431Z,97652.60
2023-02-03T11:15:53.402Z,97651.65
2023-02-03T11:18:34.150Z,97653.42
2023-02-03T11:21:11.948Z,97653.77
2023-02-03T11:23:47.192Z,97650.84
2023-02-03T11:26:19.562Z,97643.59
2023-02-03T11:28:49.571Z,97641.77
2023-02-03T11:31:23.049Z,97641.52
2023-02-03T11:33:55.547Z,97639.77
2023-02-03T11:36:26.640Z,97635.52
2023-02-03T11:39:08.993Z,97632.64
2023-02-03T11:41:38.518Z,97621.44
2023-02-03T11:44:17.227Z,97614.42
2023-02-03T11:46:48.234Z,97615.96
2023-02-03T11:49:29.542Z,97614.05
2023-02-03T11:52:18.504Z,97606.38
2023-02-03T11:55:05.927Z,97603.80
2023-02-03T11:57:41.374Z,97602.64
2023-02-03T12:00:20.094Z,97593.73
2023-02-03T12:02:55.562Z,97594.32
2023-02-03T12:05:44.401Z,97591.10
2023-02-03T12:08:13.091Z,97585.88
2023-02-03T12:10:47.805Z,97576.53
2023-02-03T12:13:34.925Z,97571.30
2023-02-03T12:16:12.795Z,97564.70
2023-02-03T12:18:46.752Z,97560.98
2023-02-03T12:21:24.235Z,97555.98
2023-02-03T12:24:11.777Z,97548.05
2023-02-03T12:26:46.273Z,97552.25
2023-02-03T12:29:17.730Z,97553.60
2023-02-03T12:31:50.568Z,97558.73
2023-02-03T12:34:30.046Z,97556.91
2023-02-03T12:37:03.088Z,97551.95
2023-02-03T12:39:31.621Z,97551.45
2023-02-03T12:42:10.845Z,97547.79
2023-02-03T12:44:44.961Z,97546.14
2023-02-03T12:47:18.559Z,97547.33
2023-02-03T12:49:54.006Z,97551.20
2023-02-03T12:52:27.002Z,97545.27
2023-02-03T12:54:55.680Z,97539.81
2023-02-03T12:57:38.086Z,97534.37
2023-02-03T13:00:10.356Z,97527.58
2023-02-03T13:03:01.575Z,97523.79
2023-02-03T13:05:39.985Z,97517.06
2023-02-03T13:08:23.831Z,97524.77
2023-02-03T13:10:55.489Z,97523.65
2023-02-03T13:13:29.776Z,97519.68
2023-02-03T13:15:59.303Z,97514.00
2023-02-03T13:18:42.935Z,97513.34
2023-02-03T13:21:12.600Z,97509.83
2023-02-03T13:23:51.979Z,97502.94
2023-02-03T13:26:35.515Z,97505.77
2023-02-03T13:29:14.239Z,97490.84
2023-02-03T13:32:03.132Z,97486.17
2023-02-03T13:34:36.869Z,97484.60
2023-02-03T13:37:24.326Z,97483.77
2023-02-03T13:39:54.859Z,97479.79
2023-02-03T13:42:28.058Z,97479.27
2023-02-03T13:45:03.592Z,97485.13
2023-02-03T13:47:33.607Z,97480.00
2023-02-03T13:50:06.815Z,97473.64
2023-02-03T13:52:46.132Z,97471.11
2023-02-03T13:55:40.677Z,97469.63
2023-02-03T13:58:20.469Z,97467.84
2023-02-03T14:00:51.920Z,97457.34
2023-02-03T14:03:26.624Z,97455.28
2023-02-03T14:05:56.357Z,97445.36
2023-02-03T14:08:28.216Z,97441.73
2023-02-03T14:11:15.947Z,97437.84
2023-02-03T14:13:46.575Z,97435.70
2023-02-03T14:16:24.023Z,97432.83
2023-02-03T14:18:54.398Z,97431.64
2023-02-03T14:21:25.132Z,97425.64
2023-02-03T14:23:58.427Z,97418.48
2023-02-03T14:26:36.030Z,97418.34
2023-02-03T14:29:05.549Z,97412.88
2023-02-03T14:31:52.873Z,97410.51
2023-02-03T14:34:36.482Z,97404.98
2023-02-03T14:37:17.042Z,97402.39
2023-02-03T14:40:06.760Z,97403.61
2023-02-03T14:42:45.851Z,97403.39
2023-02-03T14:45:25.323Z,97404.17
2023-02-03T14:47:57.153Z,97394.31
2023-02-03T14:50:25.839Z,97391.31
2023-02-03T14:52:57.189Z,97387.11
2023-02-03T14:55:35.082Z,97386.94
2023-02-03T14:58:05.618Z,97385.27
2023-02-03T15:00:35.176Z,97378.59
2023-02-03T15:03:06.995Z,97379.96
2023-02-03T15:05:35.458Z,97375.91
2023-02-03T15:08:04.348Z,97373.58
2023-02-03T15:10:44.412Z,97371.50
2023-02-03T15:13:26.294Z,97369.33
2023-02-03T15:16:05.142Z,97363.79
2023-02-03T15:18:36.979Z,97359.70
2023-02-03T15:21:05.682Z,97357.41
2023-02-03T15:23:43.388Z,97348.72
2023-02-03T15:26:14.918Z,97345.02
2023-02-03T15:28:43.507Z,97346.16
2023-02-03T15:31:21.288Z,97340.15
2023-02-03T15:33:50.901Z,97335.86
2023-02-03T15:36:25.013Z,97333.62
2023-02-03T15:39:06.909Z,97327.56
2023-02-03T15:41:35.913Z,97316.99
2023-02-03T15:44:08.273Z,97310.20
2023-02-03T15:46:41.511Z,97310.80
2023-02-03T15:49:22.251Z,97308.27
2023-02-03T15:51:53.992Z,97305.34
2023-02-03T15:54:25.135Z,97301.73
2023-02-03T15:57:02.642Z,97298.77
2023-02-03T15:59:35.830Z,97303.02
2023-02-03T16:02:22.933Z,97306.17
2023-02-03T16:04:52.231Z,97303.23
2023-02-03T16:07:22.986Z,97300.35
2023-02-03T16:09:57.420Z,97299.05
2023-02-03T16:12:30.283Z,97288.34
2023-02-03T16:14:59.501Z,97284.36
2023-02-03T16:17:27.952Z,97280.27
2023-02-03T16:20:21.216Z,97277.38
2023-02-03T16:23:08.536Z,97273.35
2023-02-03T16:25:37.127Z,97271.27
2023-02-03T16:28:36.865Z,97266.02
2023-02-03T16:31:35.836Z,97264.50
2023-02-03T16:34:36.370Z,97262.31
2023-02-03T16:37:39.856Z,97255.73
2023-02-03T16:40:27.387Z,97248.84
2023-02-03T16:43:14.621Z,97245.49
2023-02-03T16:46:02.025Z,97240.56
2023-02-03T16:48:49.567Z,97231.70
2023-02-03T16:51:18.147Z,97231.48
2023-02-03T16:53:48.549Z,97226.48
2023-02-03T16:56:19.319Z,97221.96
2023-02-03T16:58:47.785Z,97222.14
2023-02-03T17:01:16.412Z,97225.55
2023-02-03T17:03:45.871Z,97227.05
2023-02-03T17:06:15.478Z,97218.98
2023-02-03T17:08:43.854Z,97215.02
2023-02-03T17:11:22.066Z,97211.73
2023-02-03T17:13:50.849Z,97202.72
2023-02-03T17:16:23.159Z,97201.20
2023-02-03T17:18:52.319Z,97198.60
2023-02-03T17:21:22.964Z,97199.20
2023-02-03T17:23:51.328Z,97194.55
2023-02-03T17:26:19.812Z,97191.26
2023-02-03T17:28:48.294Z,97187.16
2023-02-03T17:31:18.416Z,97186.34
2023-02-03T17:33:50.579Z,97178.07
2023-02-03T17:36:19.881Z,97174.23
2023-02-03T17:55:27.106Z,97140.21
2023-02-03T17:57:55.538Z,97137.98
2023-02-03T18:00:24.639Z,97134.52
2023-02-03T18:02:53.245Z,97130.44
2023-02-03T18:05:21.993Z,97123.08
2023-02-03T18:07:50.436Z,97121.52
2023-02-03T18:10:19.169Z,97116.98
2023-02-03T18:12:48.057Z,97111.38
2023-02-03T18:15:16.960Z,97106.33
2023-02-03T18:17:45.541Z,97108.09
2023-02-03T18:20:14.005Z,97098.67
2023-02-03T18:22:44.421Z,97098.01
2023-02-03T18:25:16.393Z,97095.11
2023-02-03T18:27:44.699Z,97091.02
2023-02-03T18:30:15.293Z,97087.78
2023-02-03T18:32:44.373Z,97076.92
2023-02-03T18:35:17.058Z,97073.45
2023-02-03T18:37:45.656Z,97069.81
2023-02-03T18:40:14.130Z,97061.80
2023-02-03T18:42:42.620Z,97057.23
2023-02-03T18:45:11.608Z,97053.46
2023-02-03T18:47:40.609Z,97050.59
2023-02-03T18:50:09.290Z,97044.69
2023-02-03T18:52:38.286Z,97037.31
2023-02-03T18:55:07.112Z,97036.61
2023-02-03T18:57:35.554Z,97036.12
2023-02-03T19:00:04.745Z,97028.17
2023-02-03T19:02:33.983Z,97026.02
2023-02-03T19:05:02.858Z,97022.20
2023-02-03T19:07:31.828Z,97020.77
2023-02-03T19:10:00.210Z,97017.93
2023-02-03T19:12:28.898Z,97012.14
2023-02-03T19:14:57.277Z,97003.86
2023-02-03T19:17:26.476Z,97005.84
2023-02-03T19:19:54.867Z,97002.67
2023-02-03T19:22:23.240Z,96997.16
2023-02-03T19:24:51.618Z,96997.65
2023-02-03T19:27:19.996Z,96992.36
2023-02-03T19:29:48.475Z,96987.89
2023-02-03T19:32:17.379Z,96991.27
2023-02-03T19:34:45.854Z,96983.67
2023-02-03T19:37:14.325Z,96981.95
2023-02-03T19:39:42.727Z,96982.59
2023-02-03T19:42:12.109Z,96976.76
2023-02-03T19:44:40.896Z,96978.98
2023-02-03T19:47:09.777Z,96973.66
2023-02-03T19:49:38.271Z,96974.44
2023-02-03T19:52:09.309Z,96973.34
2023-02-03T19:54:37.795Z,96965.17
2023-02-03T19:57:06.915Z,96962.88
2023-02-03T19:59:35.572Z,96961.88
2023-02-03T20:02:13.761Z,96955.58
2023-02-03T20:04:44.332Z,96955.88
2023-02-03T20:07:13.976Z,96951.72
2023-02-03T20:09:43.035Z,96948.77
2023-02-03T20:12:12.007Z,96942.75
2023-02-03T20:14:40.486Z,96939.52
2023-02-03T20:17:09.068Z,96934.64
2023-02-03T20:19:37.464Z,96931.70
2023-02-03T20:22:06.036Z,96925.48
2023-02-03T20:24:35.134Z,96923.02
2023-02-03T20:27:04.012Z,96919.46
2023-02-03T20:29:32.392Z,96914.57
2023-02-03T20:32:01.095Z,96910.45
2023-02-03T20:34:29.765Z,96906.20
2023-02-03T20:36:59.175Z,96896.58
2023-02-03T20:39:29.086Z,96896.14
2023-02-03T20:41:57.661Z,96885.42
2023-02-03T20:44:26.044Z,96887.72
2023-02-03T20:46:56.160Z,96882.50
2023-02-03T20:49:25.150Z,96877.95
2023-02-03T20:51:53.535Z,96873.87
2023-02-03T20:54:22.930Z,96868.81
2023-02-03T20:56:51.433Z,96867.83
2023-02-03T20:59:20.403Z,96863.74
2023-02-03T21:01:50.963Z,96859.30
2023-02-03T21:04:38.876Z,96853.00
2023-02-03T21:07:15.056Z,96845.53
2023-02-03T21:09:43.632Z,96841.84
2023-02-03T21:12:16.517Z,96838.79
2023-02-03T21:14:49.226Z,96837.46
2023-02-03T21:17:20.644Z,96833.38
2023-02-03T21:19:49.528Z,96830.02
2023-02-03T21:22:21.272Z,96826.27
2023-02-03T21:24:51.509Z,96824.94
2023-02-03T21:27:30.546Z,96817.73
2023-02-03T21:30:00.221Z,96813.65
2023-02-03T21:32:38.575Z,96810.40
2023-02-03T21:35:24.763Z,96805.80
2023-02-03T21:37:57.333Z,96805.15
2023-02-03T21:40:27.912Z,96804.12
2023-02-03T21:42:57.159Z,96800.03
2023-02-03T21:45:43.590Z,96799.16
2023-02-03T21:48:24.537Z,96789.94
2023-02-03T21:50:54.038Z,96786.70
2023-02-03T21:53:34.494Z,96786.67
2023-02-03T21:56:20.699Z,96785.83
2023-02-03T21:58:51.015Z,96778.11
2023-02-03T22:01:20.305Z,96774.02
2023-02-03T22:03:51.666Z,96773.66
2023-02-03T22:06:23.117Z,96768.36
2023-02-03T22:08:53.439Z,96756.92
2023-02-03T22:11:22.535Z,96755.55
2023-02-03T22:13:51.634Z,96752.27
2023-02-03T22:16:20.541Z,96746.77
2023-02-03T22:18:49.725Z,96744.38
2023-02-03T22:21:18.708Z,96737.02
2023-02-03T22:23:47.496Z,96729.86
2023-02-03T22:26:16.524Z,96721.85
2023-02-03T22:28:45.587Z,96718.80
2023-02-03T22:31:15.052Z,96711.58
2023-02-03T22:33:43.979Z,96708.50
2023-02-03T22:36:12.974Z,96708.15
2023-02-03T22:38:42.692Z,96706.28
2023-02-03T22:41:14.547Z,96703.55
2023-02-03T22:43:43.636Z,96699.30
2023-02-03T22:46:12.372Z,96688.87
2023-02-03T22:48:41.020Z,96684.11
2023-02-03T22:51:10.008Z,96681.04
2023-02-03T22:53:39.937Z,96682.36
2023-02-03T22:56:08.700Z,96675.47
2023-02-03T22:58:37.289Z,96672.38
2023-02-03T23:01:05.869Z,96670.83
2023-02-03T23:03:34.732Z,96666.19
2023-02-03T23:06:04.060Z,96667.29
2023-02-03T23:08:32.764Z,96660.74
2023-02-03T23:11:01.739Z,96661.05
2023-02-03T23:13:30.428Z,96658.55
2023-02-03T23:15:59.138Z,96653.91
2023-02-03T23:18:27.693Z,96647.05
2023-02-03T23:20:56.392Z,96644.02
2023-02-03T23:23:25.266Z,96644.02
2023-02-03T23:25:54.265Z,96639.41
2023-02-03T23:28:23.743Z,96639.38
2023-02-03T23:30:52.780Z,96632.31
2023-02-03T23:33:21.750Z,96632.95
2023-02-03T23:35:51.161Z,96631.40
2023-02-03T23:38:19.850Z,96628.98
2023-02-03T23:40:49.049Z,96630.20
2023-02-03T23:43:18.261Z,96625.05
2023-02-03T23:45:47.234Z,96623.69
2023-02-03T23:48:18.459Z,96619.95
2023-02-03T23:50:47.261Z,96621.27
2023-02-03T23:53:16.263Z,96620.94
2023-02-03T23:55:44.949Z,96619.52
2023-02-03T23:58:13.932Z,96619.67
